Time;durP1;ratioP1;P1;durP2;ratioP2;P2;SDS_P1;SDS_P2;PMS_P1;PMS_P2;Temp;Humidity;BMP_temperature;BMP_pressure;BME280_temperature;BME280_humidity;BME280_pressure;Samples;Min_cycle;Max_cycle;Signal;HPM_P1;HPM_P2
2022/07/11 00:02:19;;;;;;;8.25;2.33;;;;;;;15.33;59.59;101638.38;5049017;28;20159;-68
2022/07/11 00:04:47;;;;;;;11.68;2.05;;;;;;;15.36;58.89;101638.19;5065357;28;20041;-69
2022/07/11 00:07:13;;;;;;;5.75;1.70;;;;;;;15.04;59.98;101636.50;5060685;28;20482;-69
2022/07/11 00:09:40;;;;;;;4.10;1.58;;;;;;;15.07;59.71;101639.00;5076288;28;20056;-69
2022/07/11 00:12:08;;;;;;;5.95;1.45;;;;;;;15.09;59.81;101630.03;5065327;28;20126;-69
2022/07/11 00:14:35;;;;;;;8.05;1.90;;;;;;;15.17;59.67;101636.66;5064240;28;20045;-69
2022/07/11 00:17:01;;;;;;;6.70;1.90;;;;;;;14.73;60.94;101637.34;5060897;28;20059;-69
2022/07/11 00:19:28;;;;;;;10.02;1.80;;;;;;;14.65;61.37;101639.56;5063062;28;20045;-69
2022/07/11 00:21:56;;;;;;;5.38;1.75;;;;;;;14.69;61.62;101642.88;5064349;28;20064;-69
2022/07/11 00:24:24;;;;;;;4.70;1.17;;;;;;;14.50;62.69;101641.25;5059460;28;20052;-69
2022/07/11 00:26:50;;;;;;;5.45;1.60;;;;;;;14.25;63.43;101638.16;5056485;28;20052;-69
2022/07/11 00:29:17;;;;;;;6.60;1.67;;;;;;;14.34;63.26;101640.34;5062996;28;20105;-69
2022/07/11 00:31:44;;;;;;;5.65;1.60;;;;;;;14.38;63.62;101648.94;5065708;28;20044;-69
2022/07/11 00:34:11;;;;;;;10.75;1.95;;;;;;;14.62;62.09;101642.38;5066167;28;20094;-69
2022/07/11 00:36:37;;;;;;;6.40;1.67;;;;;;;14.39;63.31;101642.75;5064108;28;20480;-69
2022/07/11 00:39:05;;;;;;;7.38;1.45;;;;;;;14.23;64.36;101652.38;5064918;28;20053;-69
2022/07/11 00:41:32;;;;;;;8.60;1.92;;;;;;;14.05;65.09;101641.84;5062757;28;20049;-69
2022/07/11 00:44:01;;;;;;;7.65;1.60;;;;;;;13.98;65.29;101642.22;5063966;28;20532;-69
2022/07/11 00:46:28;;;;;;;7.03;2.72;;;;;;;13.84;66.14;101642.09;5064893;28;20102;-69
2022/07/11 00:48:55;;;;;;;6.65;1.33;;;;;;;13.89;65.48;101645.34;5064016;28;20048;-69
2022/07/11 00:51:23;;;;;;;4.82;1.60;;;;;;;14.26;64.36;101650.44;5063271;28;20040;-69
2022/07/11 00:53:52;;;;;;;4.10;1.52;;;;;;;14.33;63.81;101641.25;5064725;28;20102;-69
2022/07/11 00:56:20;;;;;;;10.30;1.55;;;;;;;14.39;64.33;101643.59;5063553;28;20059;-69
2022/07/11 00:58:47;;;;;;;6.70;2.03;;;;;;;14.27;65.13;101645.97;5062594;28;20074;-69
2022/07/11 01:01:14;;;;;;;4.60;1.85;;;;;;;14.29;64.48;101645.00;5066701;28;20052;-69
2022/07/11 01:03:40;;;;;;;6.95;1.75;;;;;;;14.33;64.99;101643.03;5064552;28;20045;-69
2022/07/11 01:06:07;;;;;;;5.50;1.60;;;;;;;14.34;64.89;101636.81;5063206;28;20044;-69
2022/07/11 01:08:35;;;;;;;6.93;1.85;;;;;;;14.35;65.12;101634.13;5064576;28;20048;-69
2022/07/11 01:11:02;;;;;;;3.80;1.45;;;;;;;14.35;65.33;101641.19;5063998;28;20135;-69
2022/07/11 01:13:31;;;;;;;5.45;1.52;;;;;;;14.37;65.38;101642.84;5063923;28;20097;-69
2022/07/11 01:16:14;;;;;;;3.78;2.30;;;;;;;14.29;65.90;101634.44;5064521;28;20049;-69
2022/07/11 01:18:42;;;;;;;9.48;1.63;;;;;;;14.37;65.62;101632.28;5062177;28;20110;-69
2022/07/11 01:21:18;;;;;;;6.57;2.08;;;;;;;14.39;65.56;101621.63;5063580;28;20073;-69
2022/07/11 01:23:47;;;;;;;5.25;2.50;;;;;;;14.23;66.29;101628.63;5065180;28;20053;-69
2022/07/11 01:26:13;;;;;;;6.28;1.73;;;;;;;14.39;65.59;101621.63;5064311;28;20036;-69
2022/07/11 01:28:40;;;;;;;7.22;1.58;;;;;;;14.05;67.28;101619.88;5064719;28;20048;-72
2022/07/11 01:31:06;;;;;;;6.28;2.15;;;;;;;14.27;66.99;101612.53;5064802;28;20049;-72
2022/07/11 01:33:33;;;;;;;4.88;1.50;;;;;;;14.32;66.97;101615.81;5064834;28;20514;-72
2022/07/11 01:36:00;;;;;;;9.23;1.52;;;;;;;14.42;66.74;101622.31;5070946;28;20040;-72
2022/07/11 01:38:27;;;;;;;4.70;1.33;;;;;;;14.38;67.07;101618.13;5069419;28;20044;-72
2022/07/11 01:40:54;;;;;;;5.40;2.40;;;;;;;14.20;67.85;101616.44;5060814;28;20044;-72
2022/07/11 01:43:21;;;;;;;6.32;1.58;;;;;;;14.29;68.11;101617.75;5048681;28;20118;-72
2022/07/11 01:45:50;;;;;;;4.45;1.70;;;;;;;14.39;68.41;101614.56;5068341;28;20051;-72
2022/07/11 01:48:16;;;;;;;7.57;1.55;;;;;;;14.61;67.58;101617.75;5065903;28;20093;-72
2022/07/11 01:50:43;;;;;;;5.20;1.50;;;;;;;14.78;66.87;101624.72;5068130;28;20040;-72
2022/07/11 01:53:09;;;;;;;3.55;1.48;;;;;;;14.63;67.21;101622.97;5069919;28;20048;-72
2022/07/11 01:55:35;;;;;;;3.38;1.25;;;;;;;14.51;67.51;101631.53;5066877;28;20076;-72
2022/07/11 01:58:03;;;;;;;4.88;1.55;;;;;;;14.57;67.88;101625.91;5067469;28;20053;-72
2022/07/11 02:00:30;;;;;;;5.68;1.52;;;;;;;14.35;68.21;101620.94;5066220;28;20427;-72
2022/07/11 02:02:56;;;;;;;7.18;1.85;;;;;;;14.08;69.79;101622.34;5066217;28;20049;-72
2022/07/11 02:05:22;;;;;;;7.28;1.70;;;;;;;14.17;68.91;101624.53;5067946;28;20032;-70
2022/07/11 02:10:46;;;;;;;8.98;1.70;;;;;;;13.88;71.53;101619.91;5029374;28;20123;-71
2022/07/11 02:13:17;;;;;;;5.40;1.63;;;;;;;13.68;72.96;101627.97;5067286;28;20040;-71
2022/07/11 02:15:44;;;;;;;2.88;1.33;;;;;;;13.84;72.10;101623.63;5067206;28;20052;-70
2022/07/11 02:18:11;;;;;;;8.05;1.42;;;;;;;14.12;71.58;101627.41;5066603;28;20048;-70
2022/07/11 02:20:39;;;;;;;4.25;1.55;;;;;;;14.05;71.57;101631.28;5065270;28;20053;-70
2022/07/11 02:23:06;;;;;;;6.13;1.77;;;;;;;13.91;72.94;101625.88;5068849;28;20094;-70
2022/07/11 02:25:34;;;;;;;5.22;1.75;;;;;;;13.78;73.79;101614.28;5067627;28;20454;-70
2022/07/11 02:28:02;;;;;;;8.23;1.48;;;;;;;13.70;74.89;101628.75;5067658;28;20123;-70
2022/07/11 02:30:30;;;;;;;5.15;1.52;;;;;;;13.91;74.01;101619.75;5066403;28;20052;-71
2022/07/11 02:32:56;;;;;;;4.85;1.33;;;;;;;13.92;74.37;101621.47;5066695;28;20105;-71
2022/07/11 02:35:22;;;;;;;5.53;1.60;;;;;;;13.87;74.40;101628.75;5066602;28;20049;-71
2022/07/11 02:37:49;;;;;;;8.00;1.50;;;;;;;13.86;74.87;101625.25;5066446;28;20480;-64
2022/07/11 02:40:16;;;;;;;7.22;1.77;;;;;;;13.86;74.84;101630.53;5065926;28;20486;-64
2022/07/11 02:42:42;;;;;;;4.38;1.73;;;;;;;13.64;76.27;101636.03;5065164;28;20551;-64
2022/07/11 02:45:10;;;;;;;3.75;1.50;;;;;;;13.81;76.11;101632.56;5072473;28;20044;-65
2022/07/11 02:47:39;;;;;;;7.30;1.48;;;;;;;13.93;75.96;101636.34;5065761;28;20040;-64
2022/07/11 02:50:07;;;;;;;3.85;1.40;;;;;;;14.37;73.61;101629.66;5063674;28;20048;-64
2022/07/11 02:52:34;;;;;;;6.28;1.60;;;;;;;14.40;73.65;101632.13;5066930;28;20048;-64
2022/07/11 02:55:00;;;;;;;2.72;1.15;;;;;;;14.47;73.00;101632.63;5065938;28;20045;-64
2022/07/11 02:57:27;;;;;;;5.10;1.33;;;;;;;14.36;72.98;101635.84;5065184;28;20055;-64
2022/07/11 02:59:53;;;;;;;6.53;1.50;;;;;;;14.27;73.59;101638.06;5066354;28;20041;-64
2022/07/11 03:02:19;;;;;;;5.50;1.60;;;;;;;14.43;73.11;101633.72;5069624;28;20102;-64
2022/07/11 03:04:47;;;;;;;4.25;1.50;;;;;;;14.28;73.76;101634.50;5065328;28;20112;-64
2022/07/11 03:07:13;;;;;;;4.97;1.45;;;;;;;14.19;73.92;101632.38;5065541;28;20575;-64
2022/07/11 03:09:40;;;;;;;5.82;2.83;;;;;;;14.33;73.75;101627.22;5065224;28;20504;-64
2022/07/11 03:12:07;;;;;;;6.05;1.50;;;;;;;14.37;73.53;101632.28;5065541;28;20076;-64
2022/07/11 03:14:33;;;;;;;6.78;1.73;;;;;;;14.45;73.11;101629.22;5070542;28;20040;-64
2022/07/11 03:17:00;;;;;;;4.88;1.50;;;;;;;14.18;74.42;101631.50;5064292;28;20068;-64
2022/07/11 03:19:26;;;;;;;4.30;1.48;;;;;;;14.35;74.25;101628.84;5073516;28;20052;-64
2022/07/11 03:21:54;;;;;;;5.40;1.75;;;;;;;14.31;74.64;101637.84;5077311;28;20040;-64
2022/07/11 03:24:20;;;;;;;4.45;1.63;;;;;;;14.37;74.32;101634.94;5077030;28;20092;-64
2022/07/11 03:26:46;;;;;;;5.70;1.52;;;;;;;14.31;74.20;101648.38;5065424;28;20048;-64
2022/07/11 03:29:13;;;;;;;3.05;1.52;;;;;;;14.35;73.72;101644.69;5066246;28;20126;-64
2022/07/11 03:31:39;;;;;;;5.47;1.42;;;;;;;14.13;75.07;101638.81;5065439;28;20070;-64
2022/07/11 03:34:05;;;;;;;3.83;1.50;;;;;;;14.33;74.58;101643.91;5065406;28;20052;-64
2022/07/11 03:36:32;;;;;;;6.03;1.73;;;;;;;14.16;75.26;101643.91;5065466;28;21508;-64
2022/07/11 03:38:59;;;;;;;5.90;1.40;;;;;;;13.97;76.91;101643.16;5064223;28;20072;-64
2022/07/11 03:41:26;;;;;;;3.75;1.60;;;;;;;13.94;77.43;101640.69;5065674;28;20045;-64
2022/07/11 03:43:52;;;;;;;7.05;1.80;;;;;;;14.09;77.38;101642.53;5058488;28;20037;-64
2022/07/11 03:46:18;;;;;;;6.13;1.70;;;;;;;13.84;78.34;101653.50;5060602;28;20045;-65
2022/07/11 03:48:45;;;;;;;5.15;2.08;;;;;;;13.87;79.45;101652.47;5064229;28;20420;-65
2022/07/11 03:51:11;;;;;;;4.68;1.73;;;;;;;14.11;78.75;101644.19;5062090;28;20068;-65
2022/07/11 03:53:37;;;;;;;5.15;1.90;;;;;;;14.09;78.70;101643.38;5065434;28;20094;-65
2022/07/11 03:56:06;;;;;;;6.68;2.10;;;;;;;14.25;78.25;101643.44;5066043;28;20049;-65
2022/07/11 03:58:32;;;;;;;6.75;1.90;;;;;;;14.32;78.48;101641.31;5063913;28;20561;-65
2022/07/11 04:00:58;;;;;;;5.30;1.67;;;;;;;14.38;78.45;101630.47;5064431;28;20492;-65
2022/07/11 04:03:25;;;;;;;3.97;1.70;;;;;;;14.06;80.00;101633.00;5065686;28;20048;-65
2022/07/11 04:05:52;;;;;;;7.47;2.00;;;;;;;14.51;78.74;101632.41;5062983;28;20044;-65
2022/07/11 04:08:18;;;;;;;8.60;1.52;;;;;;;14.25;80.27;101627.63;5064555;28;20098;-64
2022/07/11 04:10:44;;;;;;;5.97;2.13;;;;;;;14.32;80.58;101629.00;5065259;28;20098;-64
2022/07/11 04:13:13;;;;;;;3.03;1.67;;;;;;;14.44;79.76;101623.09;5057906;28;20129;-64
2022/07/11 04:15:39;;;;;;;5.85;2.00;;;;;;;14.86;78.41;101634.88;5059522;28;20069;-64
2022/07/11 04:18:05;;;;;;;7.43;2.30;;;;;;;14.74;78.98;101625.88;5065749;28;20133;-64
2022/07/11 04:20:32;;;;;;;8.43;2.20;;;;;;;14.60;80.18;101629.25;5063811;28;20451;-64
2022/07/11 04:22:58;;;;;;;3.42;2.10;;;;;;;14.75;79.33;101631.97;5064054;28;20587;-64
2022/07/11 04:25:25;;;;;;;6.18;2.45;;;;;;;15.14;78.37;101642.97;5065380;28;20052;-64
2022/07/11 04:27:51;;;;;;;8.90;2.47;;;;;;;15.18;77.94;101641.88;5063857;28;20052;-64
2022/07/11 04:30:19;;;;;;;5.60;2.40;;;;;;;15.21;78.30;101636.41;5063602;28;20097;-64
2022/07/11 04:32:45;;;;;;;5.75;2.22;;;;;;;15.37;77.94;101636.41;5065319;28;20040;-64
2022/07/11 04:35:11;;;;;;;4.80;2.28;;;;;;;15.33;77.90;101646.28;5064021;28;20072;-64
2022/07/11 04:37:38;;;;;;;5.82;2.55;;;;;;;15.13;78.16;101645.69;5065143;28;20053;-65
2022/07/11 04:40:06;;;;;;;9.80;2.60;;;;;;;15.58;76.70;101635.19;5064108;28;20075;-65
2022/07/11 04:42:32;;;;;;;6.95;2.50;;;;;;;15.51;77.34;101645.28;5063186;28;20106;-65
2022/07/11 04:44:59;;;;;;;6.60;2.45;;;;;;;15.58;77.59;101645.75;5063551;28;20045;-65
2022/07/11 04:47:26;;;;;;;5.68;2.50;;;;;;;15.81;76.82;101633.84;5064743;28;20044;-66
2022/07/11 04:49:53;;;;;;;7.53;2.95;;;;;;;15.67;76.90;101636.44;5063866;28;20048;-65
2022/07/11 04:52:19;;;;;;;4.57;2.45;;;;;;;15.92;76.51;101637.56;5063674;28;20072;-65
2022/07/11 04:54:45;;;;;;;4.28;2.10;;;;;;;16.10;74.93;101632.94;5063766;28;20048;-65
2022/07/11 04:57:12;;;;;;;3.83;2.10;;;;;;;16.23;74.75;101633.88;5062073;28;20093;-65
2022/07/11 04:59:38;;;;;;;7.40;2.70;;;;;;;15.99;76.48;101635.38;5064605;28;20107;-65
2022/07/11 05:02:05;;;;;;;6.95;2.25;;;;;;;16.59;74.12;101637.91;5065202;28;20493;-65
2022/07/11 05:04:33;;;;;;;9.45;2.97;;;;;;;16.76;73.65;101637.69;5062264;28;20041;-65
2022/07/11 05:06:59;;;;;;;5.18;2.25;;;;;;;16.83;72.37;101639.00;5064168;28;20045;-65
2022/07/11 05:09:25;;;;;;;4.50;2.28;;;;;;;16.79;73.00;101643.63;5063332;28;20070;-65
2022/07/11 05:11:52;;;;;;;7.13;2.42;;;;;;;16.39;75.28;101650.53;5063388;28;20098;-65
2022/07/11 05:14:18;;;;;;;16.63;3.03;;;;;;;16.54;74.45;101641.66;5064309;28;20094;-65
2022/07/11 05:16:44;;;;;;;5.70;1.80;;;;;;;16.83;73.26;101642.50;5065225;28;20040;-65
2022/07/11 05:19:11;;;;;;;5.78;1.45;;;;;;;17.08;71.00;101648.88;5067379;28;20064;-65
2022/07/11 05:21:39;;;;;;;6.28;2.00;;;;;;;17.26;70.73;101653.84;5069526;28;20102;-66
2022/07/11 05:24:06;;;;;;;6.65;1.50;;;;;;;17.33;69.79;101647.19;5067647;28;20041;-65
2022/07/11 05:26:33;;;;;;;3.55;1.30;;;;;;;17.40;69.63;101651.16;5066904;28;20055;-65
2022/07/11 05:28:59;;;;;;;3.13;1.40;;;;;;;17.33;70.29;101659.59;5061958;28;20053;-65
2022/07/11 05:31:25;;;;;;;4.57;1.95;;;;;;;17.88;67.91;101651.53;5063978;28;20508;-65
2022/07/11 05:33:52;;;;;;;7.60;1.58;;;;;;;18.05;68.46;101655.66;5065800;28;20048;-65
2022/07/11 05:36:18;;;;;;;3.45;1.52;;;;;;;18.33;65.67;101660.75;5069403;28;20044;-65
2022/07/11 05:38:46;;;;;;;3.35;1.10;;;;;;;18.24;65.96;101656.09;5067057;28;20041;-65
2022/07/11 05:41:12;;;;;;;7.68;1.33;;;;;;;18.30;65.25;101656.53;5066925;28;20045;-65
2022/07/11 05:43:39;;;;;;;3.72;1.38;;;;;;;18.33;65.38;101661.63;5061538;28;20049;-66
2022/07/11 05:46:06;;;;;;;3.15;1.02;;;;;;;18.42;65.34;101658.34;5061964;28;20482;-65
2022/07/11 05:48:32;;;;;;;4.28;1.00;;;;;;;18.66;65.23;101658.44;5067689;28;20640;-65
2022/07/11 05:50:58;;;;;;;5.05;1.27;;;;;;;18.73;64.43;101664.19;5068829;28;20040;-65
2022/07/11 05:53:25;;;;;;;6.50;1.25;;;;;;;19.55;60.90;101667.00;5066529;28;20102;-65
2022/07/11 05:55:53;;;;;;;9.15;1.23;;;;;;;19.74;60.18;101671.78;5068983;28;20048;-65
2022/07/11 05:58:19;;;;;;;3.45;1.20;;;;;;;19.72;60.73;101669.25;5067621;28;20045;-65
2022/07/11 06:00:45;;;;;;;3.95;1.20;;;;;;;19.60;60.60;101671.97;5066490;28;20048;-65
2022/07/11 06:03:12;;;;;;;4.03;1.42;;;;;;;19.44;60.08;101678.44;5068187;28;20048;-65
2022/07/11 06:05:38;;;;;;;4.13;1.67;;;;;;;20.00;59.08;101675.13;5067742;28;20118;-65
2022/07/11 06:10:49;;;;;;;3.13;1.17;;;;;;;20.84;57.17;101681.78;5064530;28;20133;-73
2022/07/11 06:13:17;;;;;;;1.85;1.08;;;;;;;20.75;54.46;101673.69;5062889;28;20052;-67
2022/07/11 06:15:44;;;;;;;6.63;1.30;;;;;;;20.76;55.04;101680.72;5063353;28;20052;-68
2022/07/11 06:18:10;;;;;;;4.18;1.30;;;;;;;20.53;55.21;101676.34;5066550;28;20052;-68
2022/07/11 06:20:37;;;;;;;4.20;1.35;;;;;;;21.02;54.06;101673.28;5066917;28;20040;-68
2022/07/11 06:23:03;;;;;;;3.25;1.20;;;;;;;21.01;55.03;101677.78;5067333;28;20044;-68
2022/07/11 06:25:30;;;;;;;3.90;1.45;;;;;;;21.38;53.13;101674.81;5064904;28;20147;-68
2022/07/11 06:27:56;;;;;;;6.40;1.42;;;;;;;21.30;54.32;101678.09;5066220;28;20048;-68
2022/07/11 06:30:24;;;;;;;3.83;1.40;;;;;;;20.99;54.01;101677.03;5067621;28;20098;-67
2022/07/11 06:32:50;;;;;;;4.88;1.30;;;;;;;20.69;55.07;101685.69;5065864;28;20049;-67
2022/07/11 06:35:17;;;;;;;3.05;1.10;;;;;;;19.89;56.71;101678.59;5074023;28;20044;-66
2022/07/11 06:37:43;;;;;;;2.72;1.30;;;;;;;20.05;57.07;101672.97;5067381;28;20066;-66
2022/07/11 06:40:11;;;;;;;5.10;1.33;;;;;;;20.34;57.11;101680.44;5066630;28;20049;-66
2022/07/11 06:42:38;;;;;;;3.47;1.27;;;;;;;20.32;56.01;101679.69;5066492;28;20048;-66
2022/07/11 06:45:06;;;;;;;2.97;1.25;;;;;;;20.22;54.93;101673.38;5070993;28;20040;-66
2022/07/11 06:47:34;;;;;;;3.25;1.00;;;;;;;19.92;56.03;101675.72;5068692;28;20044;-66
2022/07/11 06:50:00;;;;;;;12.40;1.88;;;;;;;19.74;57.57;101685.94;5068923;28;20133;-66
2022/07/11 06:52:27;;;;;;;3.45;1.00;;;;;;;20.71;56.37;101681.06;5066882;28;20121;-66
2022/07/11 06:54:53;;;;;;;2.45;0.80;;;;;;;20.29;54.26;101681.75;5064483;28;20105;-67
2022/07/11 06:57:19;;;;;;;3.13;1.10;;;;;;;20.47;53.79;101679.50;5082257;28;20044;-67
2022/07/11 06:59:49;;;;;;;4.05;1.13;;;;;;;20.52;54.62;101686.16;5067182;28;20145;-67
2022/07/11 07:02:15;;;;;;;5.13;1.42;;;;;;;21.13;54.23;101681.31;5070521;28;20040;-67
2022/07/11 07:04:43;;;;;;;4.50;1.13;;;;;;;21.57;54.89;101685.66;5070352;28;20138;-66
2022/07/11 07:07:09;;;;;;;3.35;0.90;;;;;;;21.30;51.45;101683.44;5067756;28;20056;-67
2022/07/11 07:09:35;;;;;;;2.95;1.00;;;;;;;21.17;49.96;101680.09;5070442;28;20488;-67
2022/07/11 07:12:02;;;;;;;4.13;0.90;;;;;;;20.69;51.55;101683.03;5077407;28;20104;-67
2022/07/11 07:14:28;;;;;;;3.45;1.15;;;;;;;20.75;53.42;101679.00;5069024;28;20044;-67
2022/07/11 07:16:55;;;;;;;4.20;1.23;;;;;;;20.33;52.37;101684.06;5073391;28;20546;-67
2022/07/11 07:19:21;;;;;;;2.65;1.10;;;;;;;20.64;52.80;101671.88;5065366;28;20045;-67
2022/07/11 07:21:49;;;;;;;6.70;1.48;;;;;;;20.87;54.24;101680.72;5067389;28;20056;-67
2022/07/11 07:24:15;;;;;;;4.65;1.30;;;;;;;21.06;51.48;101683.59;5065413;28;20110;-67
2022/07/11 07:26:42;;;;;;;2.97;1.15;;;;;;;21.72;48.77;101687.06;5069228;28;20040;-67
2022/07/11 07:29:08;;;;;;;5.32;1.20;;;;;;;22.10;46.72;101681.19;5066312;28;20502;-67
2022/07/11 07:31:34;;;;;;;4.53;1.00;;;;;;;22.42;47.48;101681.09;5063623;28;20045;-66
2022/07/11 07:34:01;;;;;;;4.40;1.30;;;;;;;22.76;44.43;101687.91;5067719;28;20049;-66
2022/07/11 07:36:27;;;;;;;3.22;1.00;;;;;;;23.09;44.34;101684.06;5066298;28;20048;-66
2022/07/11 07:38:55;;;;;;;1.75;1.08;;;;;;;23.51;45.81;101693.59;5062993;28;20094;-67
2022/07/11 07:41:21;;;;;;;2.83;1.33;;;;;;;23.97;43.55;101682.19;5073913;28;20102;-67
2022/07/11 07:43:48;;;;;;;2.42;1.15;;;;;;;23.49;40.93;101684.03;5075918;28;20126;-67
2022/07/11 07:46:15;;;;;;;4.88;1.10;;;;;;;23.39;42.03;101686.63;5065853;28;20036;-67
2022/07/11 07:48:42;;;;;;;3.60;1.42;;;;;;;23.68;48.22;101687.56;5068779;28;20090;-67
2022/07/11 07:51:08;;;;;;;4.55;1.42;;;;;;;23.73;41.77;101679.94;5066897;28;20048;-67
2022/07/11 07:53:35;;;;;;;4.88;1.20;;;;;;;23.98;41.62;101681.19;5077219;28;20044;-67
2022/07/11 07:56:02;;;;;;;4.35;1.20;;;;;;;24.35;40.51;101685.81;5066863;28;20070;-67
2022/07/11 07:58:28;;;;;;;3.85;1.20;;;;;;;24.01;39.13;101683.59;5084716;28;20075;-67
2022/07/11 08:03:39;;;;;;;2.40;1.08;;;;;;;24.49;41.72;101685.34;5076328;28;20145;-67
2022/07/11 08:06:05;;;;;;;3.28;0.90;;;;;;;24.21;40.79;101677.22;5081089;28;20545;-68
2022/07/11 08:08:31;;;;;;;3.92;1.02;;;;;;;24.50;43.87;101679.81;5052885;28;20227;-68
2022/07/11 08:11:00;;;;;;;3.25;1.27;;;;;;;24.58;38.38;101682.63;5064563;28;20048;-68
2022/07/11 08:13:28;;;;;;;4.55;1.70;;;;;;;24.66;40.76;101669.31;5062623;28;20072;-67
2022/07/11 08:15:55;;;;;;;2.72;1.15;;;;;;;25.02;38.08;101674.81;5062362;28;20052;-67
2022/07/11 08:18:21;;;;;;;3.67;1.02;;;;;;;25.53;37.54;101682.28;5064867;28;20064;-67
2022/07/11 08:20:48;;;;;;;9.10;1.30;;;;;;;25.76;39.80;101675.44;5075426;28;20102;-67
2022/07/11 08:23:14;;;;;;;3.45;1.30;;;;;;;25.96;38.38;101678.78;5079161;28;20044;-67
2022/07/11 08:25:41;;;;;;;2.72;1.15;;;;;;;25.89;38.00;101675.91;5084593;28;20520;-67
2022/07/11 08:28:07;;;;;;;3.75;1.17;;;;;;;25.84;39.10;101678.19;5069046;28;20094;-67
2022/07/11 08:30:35;;;;;;;3.67;1.98;;;;;;;25.85;38.90;101685.25;5064974;28;20082;-67
2022/07/11 08:33:02;;;;;;;6.38;1.20;;;;;;;26.05;39.24;101670.63;5065565;28;20582;-68
2022/07/11 08:35:28;;;;;;;2.97;1.30;;;;;;;26.38;37.84;101676.28;5064356;28;20040;-68
2022/07/11 08:37:54;;;;;;;3.63;1.15;;;;;;;26.38;37.04;101679.81;5044942;28;20040;-68
2022/07/11 08:40:21;;;;;;;2.60;1.33;;;;;;;26.90;37.72;101683.25;5044251;28;20098;-68
2022/07/11 08:42:48;;;;;;;3.30;1.52;;;;;;;26.41;35.83;101675.94;5047616;28;20060;-68
2022/07/11 08:45:15;;;;;;;4.53;1.50;;;;;;;25.95;36.33;101680.63;5062982;28;20040;-68
2022/07/11 08:47:44;;;;;;;3.42;1.20;;;;;;;25.96;36.85;101682.31;5070447;28;20049;-68
2022/07/11 08:50:12;;;;;;;3.22;1.40;;;;;;;26.13;36.26;101673.38;5063750;28;20044;-68
2022/07/11 08:52:39;;;;;;;2.55;1.20;;;;;;;26.22;36.16;101673.47;5065909;28;20064;-67
2022/07/11 08:55:07;;;;;;;3.03;1.20;;;;;;;26.36;39.71;101672.88;5062674;28;20044;-67
2022/07/11 08:57:35;;;;;;;4.28;1.40;;;;;;;26.20;35.97;101678.16;5062188;28;20048;-67
2022/07/11 09:00:02;;;;;;;7.28;1.60;;;;;;;26.15;36.52;101674.06;5083609;28;20132;-68
2022/07/11 09:02:30;;;;;;;3.30;1.20;;;;;;;26.55;38.82;101676.19;5083102;28;20052;-67
2022/07/11 09:04:58;;;;;;;4.72;1.20;;;;;;;26.88;34.38;101673.69;5078164;28;20048;-68
2022/07/11 09:07:24;;;;;;;5.00;1.42;;;;;;;27.01;34.73;101677.59;5070143;28;20048;-68
2022/07/11 09:09:51;;;;;;;3.30;1.50;;;;;;;26.91;38.31;101678.72;5063834;28;20102;-68
2022/07/11 09:12:17;;;;;;;3.33;1.45;;;;;;;27.13;39.25;101678.13;5063136;28;20042;-68
2022/07/11 09:14:47;;;;;;;16.40;2.67;;;;;;;27.51;34.61;101680.28;5065912;28;20048;-68
2022/07/11 09:17:14;;;;;;;4.50;1.42;;;;;;;28.19;35.56;101671.88;5063663;28;20549;-68
2022/07/11 09:19:41;;;;;;;31.05;3.03;;;;;;;27.92;37.47;101680.28;5062309;28;20098;-68
2022/07/11 09:27:42;;;;;;;2.53;1.20;;;;;;;27.37;34.60;101674.66;5063196;28;20052;-68
2022/07/11 09:30:23;;;;;;;3.55;1.60;;;;;;;27.58;33.74;101662.44;5063208;28;20106;-68
2022/07/11 09:32:58;;;;;;;5.20;1.30;;;;;;;28.14;33.55;101659.91;5063598;28;20420;-68
2022/07/11 09:35:27;;;;;;;7.72;1.58;;;;;;;27.40;34.05;101672.47;5064479;28;20068;-68
2022/07/11 09:37:55;;;;;;;2.55;1.00;;;;;;;27.41;36.23;101665.25;5065566;28;20483;-68
2022/07/11 09:40:22;;;;;;;3.13;1.17;;;;;;;27.85;35.28;101653.16;5074617;28;20089;-68
2022/07/11 09:42:50;;;;;;;6.60;1.20;;;;;;;27.58;33.31;101646.25;5076984;28;20143;-68
2022/07/11 09:45:18;;;;;;;4.25;1.45;;;;;;;27.68;35.44;101653.34;5054484;28;20053;-69
2022/07/11 09:47:46;;;;;;;3.35;1.25;;;;;;;27.57;37.13;101649.13;5067373;28;20114;-68
2022/07/11 09:50:13;;;;;;;4.05;1.25;;;;;;;27.40;35.85;101655.47;5041510;28;20493;-68
2022/07/11 09:52:43;;;;;;;2.28;1.05;;;;;;;27.37;38.46;101658.50;5043543;28;20504;-68
2022/07/11 09:55:10;;;;;;;5.72;1.38;;;;;;;27.72;37.10;101654.66;5060131;28;20051;-68
2022/07/11 09:57:38;;;;;;;2.97;1.10;;;;;;;28.24;37.13;101647.06;5074394;28;20048;-68
2022/07/11 10:00:08;;;;;;;6.80;1.90;;;;;;;28.45;35.34;101640.13;5064047;28;20048;-68
2022/07/11 10:02:34;;;;;;;4.30;1.00;;;;;;;27.79;33.82;101645.75;5067405;28;20056;-68
2022/07/11 10:05:02;;;;;;;2.13;1.10;;;;;;;28.78;35.47;101637.31;5064526;28;20051;-68
2022/07/11 10:07:29;;;;;;;2.80;0.95;;;;;;;27.91;30.46;101635.47;5066800;28;20098;-68
2022/07/11 10:09:55;;;;;;;3.33;1.10;;;;;;;27.63;37.97;101651.16;5080579;28;20040;-68
2022/07/11 10:12:23;;;;;;;4.60;1.10;;;;;;;27.50;35.13;101657.03;5067473;28;20037;-68
2022/07/11 10:14:51;;;;;;;7.53;1.20;;;;;;;27.94;37.03;101656.69;5066521;28;20498;-68
2022/07/11 10:17:26;;;;;;;4.38;1.02;;;;;;;27.82;34.37;101648.13;5067029;28;20102;-70
2022/07/11 10:19:58;;;;;;;2.92;1.10;;;;;;;27.46;33.28;101649.44;5046613;28;20041;-70
2022/07/11 10:22:31;;;;;;;2.13;1.20;;;;;;;27.74;35.38;101648.13;5075202;28;20089;-70
2022/07/11 10:25:06;;;;;;;2.35;1.30;;;;;;;27.81;34.02;101642.88;5086021;28;20040;-70
2022/07/11 10:27:40;;;;;;;4.22;1.00;;;;;;;27.58;32.76;101640.88;5083624;28;20121;-70
2022/07/11 10:30:07;;;;;;;3.58;0.93;;;;;;;27.12;35.84;101640.63;5059756;28;20045;-70
2022/07/11 10:33:00;;;;;;;2.80;1.10;;;;;;;27.17;35.96;101632.88;5076453;28;20044;-70
2022/07/11 10:35:30;;;;;;;3.85;1.10;;;;;;;27.66;34.65;101631.94;5064987;28;20044;-69
2022/07/11 10:37:58;;;;;;;2.55;1.00;;;;;;;27.97;34.23;101643.69;5067634;28;20082;-69
2022/07/11 10:40:45;;;;;;;2.72;1.00;;;;;;;28.60;34.11;101648.31;5067404;28;20041;-70
2022/07/11 10:43:14;;;;;;;7.38;1.15;;;;;;;27.47;33.91;101646.59;5060338;28;20463;-69
2022/07/11 10:45:55;;;;;;;5.20;1.30;;;;;;;27.84;35.22;101650.63;5061018;28;20111;-70
2022/07/11 10:48:22;;;;;;;5.67;1.40;;;;;;;27.48;33.43;101634.81;5066781;28;20041;-70
2022/07/11 10:50:55;;;;;;;3.70;1.30;;;;;;;27.14;35.52;101646.66;5066947;28;20508;-69
2022/07/11 10:53:23;;;;;;;6.43;1.38;;;;;;;26.87;36.54;101654.00;5068467;28;20098;-69
2022/07/11 10:56:03;;;;;;;2.83;1.10;;;;;;;27.27;39.45;101655.13;5072681;28;20094;-70
2022/07/11 10:58:32;;;;;;;3.28;1.23;;;;;;;26.98;33.68;101655.53;5065885;28;20058;-69
2022/07/11 11:01:11;;;;;;;2.40;1.20;;;;;;;27.14;35.38;101660.97;5066581;28;20048;-69
2022/07/11 11:03:38;;;;;;;2.83;1.10;;;;;;;27.74;36.33;101648.13;5065670;28;20044;-69
2022/07/11 11:06:06;;;;;;;3.88;1.48;;;;;;;27.54;32.24;101652.16;5068207;28;20099;-70
2022/07/11 11:08:46;;;;;;;4.13;1.10;;;;;;;27.60;35.51;101656.88;5065870;28;20441;-70
2022/07/11 11:11:47;;;;;;;5.25;1.10;;;;;;;28.03;35.83;101656.53;5069812;28;20059;-70
2022/07/11 11:14:28;;;;;;;3.13;1.10;;;;;;;28.18;33.28;101642.38;5002728;28;20097;-70
2022/07/11 11:16:55;;;;;;;2.92;0.95;;;;;;;28.75;29.75;101640.38;5053842;28;20451;-70
2022/07/11 11:19:53;;;;;;;3.92;1.05;;;;;;;28.93;36.18;101641.78;5064592;28;20087;-70
2022/07/11 11:22:20;;;;;;;2.85;1.08;;;;;;;29.60;33.23;101647.44;5067260;28;20044;-70
2022/07/11 11:24:48;;;;;;;3.33;1.10;;;;;;;28.61;34.71;101638.34;5064479;28;20412;-70
2022/07/11 11:27:19;;;;;;;5.00;1.20;;;;;;;28.72;37.95;101656.88;5065828;28;20396;-70
2022/07/11 11:29:46;;;;;;;2.20;1.00;;;;;;;29.21;32.89;101638.56;5065665;28;20060;-70
2022/07/11 11:32:13;;;;;;;3.20;0.90;;;;;;;29.79;34.59;101646.94;5064259;28;20484;-70
2022/07/11 11:34:40;;;;;;;4.25;1.00;;;;;;;29.52;31.64;101644.81;5065916;28;20521;-70
2022/07/11 11:37:07;;;;;;;2.72;1.20;;;;;;;29.50;32.25;101638.72;5066201;28;20119;-70
2022/07/11 11:39:34;;;;;;;4.63;1.00;;;;;;;29.68;32.52;101636.56;5068213;28;20123;-70
2022/07/11 11:42:06;;;;;;;2.78;0.80;;;;;;;29.72;32.37;101635.16;5064738;28;20638;-70